Time;durP1;ratioP1;P1;durP2;ratioP2;P2;SDS_P1;SDS_P2;PMS_P1;PMS_P2;Temp;Humidity;BMP_temperature;BMP_pressure;BME280_temperature;BME280_humidity;BME280_pressure;Samples;Min_cycle;Max_cycle;Signal;HPM_P1;HPM_P2
2021/06/19 00:01:54;;;;;;;33.13;18.40;;;;;;;18.19;76.00;90954.66;4973768;28;20042;-84
2021/06/19 00:04:30;;;;;;;33.75;16.65;;;;;;;18.19;76.03;90954.66;4959135;28;20031;-84
2021/06/19 00:07:08;;;;;;;41.00;18.27;;;;;;;18.20;75.81;90958.78;4974626;28;20030;-83
2021/06/19 00:09:51;;;;;;;33.85;18.33;;;;;;;18.01;76.60;90962.50;4960287;28;20106;-84
2021/06/19 00:12:33;;;;;;;34.72;17.90;;;;;;;17.96;77.03;90955.72;4963053;28;20033;-83
2021/06/19 00:15:15;;;;;;;39.67;18.60;;;;;;;17.93;77.29;90956.47;4977515;28;20038;-84
2021/06/19 00:17:49;;;;;;;30.65;18.08;;;;;;;17.84;77.62;90969.97;4962351;28;20492;-83
2021/06/19 00:20:24;;;;;;;;;;;;;;;17.95;77.40;90963.97;4961960;28;20030;-83
2021/06/19 00:23:04;;;;;;;30.77;17.73;;;;;;;17.91;77.23;90963.97;4961578;28;20000;-83
2021/06/19 00:25:44;;;;;;;30.77;18.40;;;;;;;17.76;77.62;90972.97;4962763;28;20030;-83
2021/06/19 00:28:33;;;;;;;37.67;20.38;;;;;;;17.69;77.74;90969.13;4962984;28;20026;-84
2021/06/19 00:31:11;;;;;;;33.83;17.83;;;;;;;17.66;77.52;90969.13;4976355;28;20030;-83
2021/06/19 00:33:49;;;;;;;33.00;17.75;;;;;;;17.59;77.31;90969.84;4961464;28;20076;-83
2021/06/19 00:36:24;;;;;;;41.08;17.67;;;;;;;17.50;77.19;90966.78;4962273;28;20523;-83
2021/06/19 00:39:05;;;;;;;38.45;19.05;;;;;;;17.34;77.17;90968.94;4995038;28;20046;-83
2021/06/19 00:41:43;;;;;;;38.60;19.63;;;;;;;17.18;78.61;90967.34;4977403;28;20057;-83
2021/06/19 00:44:25;;;;;;;38.55;19.48;;;;;;;17.31;77.80;90964.41;4978474;28;20109;-83
2021/06/19 00:47:00;;;;;;;34.78;18.67;;;;;;;17.28;77.58;90965.16;4978382;28;20093;-84
2021/06/19 00:49:40;;;;;;;34.55;18.20;;;;;;;17.14;77.84;90961.31;4961452;28;20116;-84
2021/06/19 00:52:12;;;;;;;35.95;17.08;;;;;;;17.04;78.25;90962.00;4960704;28;20057;-83
2021/06/19 00:54:51;;;;;;;39.17;16.75;;;;;;;17.05;77.93;90968.00;4977149;28;20026;-82
2021/06/19 00:57:28;;;;;;;33.40;16.90;;;;;;;17.03;77.90;90968.41;4977773;28;20052;-83
2021/06/19 01:00:12;;;;;;;32.55;18.05;;;;;;;16.98;78.11;90963.47;4961739;28;20045;-84
2021/06/19 01:02:51;;;;;;;34.97;17.93;;;;;;;16.98;77.89;90958.19;4977814;28;20373;-83
2021/06/19 01:05:29;;;;;;;34.42;16.80;;;;;;;16.87;78.30;90962.63;4977952;28;20033;-83
2021/06/19 01:08:07;;;;;;;36.50;18.02;;;;;;;16.89;78.03;90957.75;4962013;28;20507;-83
2021/06/19 01:10:47;;;;;;;35.20;17.50;;;;;;;16.73;78.33;90958.72;4961491;28;20036;-83
2021/06/19 01:13:23;;;;;;;30.75;16.75;;;;;;;16.78;78.26;90949.00;4994041;28;20034;-83
2021/06/19 01:15:53;;;;;;;26.88;16.55;;;;;;;16.64;78.28;90949.63;5007602;28;20030;-84
2021/06/19 01:18:38;;;;;;;36.58;15.90;;;;;;;16.68;77.08;90948.56;4983481;28;20022;-84
2021/06/19 01:21:25;;;;;;;32.40;14.88;;;;;;;16.59;77.74;90955.22;4996328;28;20037;-85
2021/06/19 01:24:07;;;;;;;31.40;16.23;;;;;;;16.58;78.11;90946.59;4965471;28;20431;-85
2021/06/19 01:26:46;;;;;;;34.17;17.20;;;;;;;16.36;78.65;90944.88;4981800;28;20018;-84
2021/06/19 01:29:24;;;;;;;35.83;16.88;;;;;;;16.35;79.71;90948.63;4981565;28;20024;-84
2021/06/19 01:32:04;;;;;;;39.42;17.10;;;;;;;16.40;79.85;90946.44;4948678;28;20027;-84
2021/06/19 01:34:45;;;;;;;37.05;17.92;;;;;;;16.35;80.71;90949.38;4965277;28;20393;-85
2021/06/19 01:37:23;;;;;;;35.03;16.83;;;;;;;16.25;80.01;90950.03;4979653;28;20096;-84
2021/06/19 01:40:22;;;;;;;38.53;17.48;;;;;;;16.25;79.70;90956.06;4965245;28;20099;-83
2021/06/19 01:43:04;;;;;;;33.78;17.65;;;;;;;16.21;80.34;90955.25;4980533;28;20114;-84
2021/06/19 01:45:46;;;;;;;38.88;17.88;;;;;;;16.26;80.47;90946.31;4965119;28;20052;-85
2021/06/19 01:48:25;;;;;;;35.00;16.75;;;;;;;16.21;80.40;90950.00;4980941;28;20113;-85
2021/06/19 01:51:06;;;;;;;31.52;15.85;;;;;;;16.21;79.09;90944.00;4978619;28;20058;-85
2021/06/19 01:53:51;;;;;;;31.52;16.75;;;;;;;16.19;79.43;90936.47;4961365;28;20030;-85
2021/06/19 01:56:33;;;;;;;35.80;16.20;;;;;;;16.13;79.04;90945.03;4930421;28;20031;-84
2021/06/19 01:59:15;;;;;;;31.17;15.77;;;;;;;16.05;79.63;90940.84;4964007;28;20039;-85
2021/06/19 02:01:49;;;;;;;38.15;17.45;;;;;;;16.04;79.77;90950.56;4947132;28;20027;-85
2021/06/19 02:04:36;;;;;;;41.95;17.48;;;;;;;16.05;80.76;90952.09;4986108;23;20447;-86
2021/06/19 02:07:18;;;;;;;35.83;16.83;;;;;;;16.15;79.89;90948.84;4995419;28;20057;-86
2021/06/19 02:09:54;;;;;;;38.53;16.75;;;;;;;16.10;80.46;90949.16;5011112;28;20018;-86
2021/06/19 02:12:34;;;;;;;39.75;17.55;;;;;;;16.06;80.49;90964.13;5011766;28;20060;-86
2021/06/19 02:15:11;;;;;;;31.02;15.57;;;;;;;16.11;80.34;90966.41;5012637;28;20476;-86
2021/06/19 02:17:47;;;;;;;30.60;16.83;;;;;;;16.05;80.48;90973.13;5011497;28;20063;-86
2021/06/19 02:20:24;;;;;;;30.52;17.05;;;;;;;16.00;80.71;90968.19;4994073;28;20032;-86
2021/06/19 02:23:05;;;;;;;33.40;17.73;;;;;;;16.04;80.56;90976.84;4978266;28;20029;-86
2021/06/19 02:25:32;;;;;;;35.50;16.65;;;;;;;16.05;80.49;90973.13;4994788;28;20137;-86
2021/06/19 02:28:18;;;;;;;28.95;15.85;;;;;;;16.11;80.58;90981.44;4978500;28;20403;-86
2021/06/19 02:30:55;;;;;;;37.03;16.20;;;;;;;16.14;80.37;90980.72;5023231;28;20030;-89
2021/06/19 02:33:37;;;;;;;30.58;16.85;;;;;;;16.09;80.76;90984.44;5037620;28;20021;-90
2021/06/19 02:36:12;;;;;;;42.67;16.55;;;;;;;16.10;80.83;90982.56;5017036;28;20030;-86
2021/06/19 02:38:49;;;;;;;38.05;16.25;;;;;;;16.13;80.30;90987.09;5011231;28;20025;-86
2021/06/19 02:41:28;;;;;;;27.33;15.15;;;;;;;16.10;80.48;90985.94;4994161;28;20440;-86
2021/06/19 02:44:08;;;;;;;34.95;16.23;;;;;;;16.09;80.81;90987.06;4993334;28;20117;-86
2021/06/19 02:46:46;;;;;;;26.20;15.20;;;;;;;16.11;80.36;90992.72;4994770;28;20030;-86
2021/06/19 02:49:28;;;;;;;24.38;14.77;;;;;;;16.12;80.22;91002.13;5011706;28;20390;-86
2021/06/19 02:52:08;;;;;;;35.58;15.73;;;;;;;16.19;79.78;91002.19;5011870;28;20033;-86
2021/06/19 02:54:51;;;;;;;39.35;16.40;;;;;;;16.07;80.22;91010.31;4994455;28;20036;-86
2021/06/19 02:57:29;;;;;;;32.20;16.27;;;;;;;16.08;80.53;91003.97;4978143;28;20026;-86
2021/06/19 03:00:09;;;;;;;39.08;15.95;;;;;;;16.01;80.84;91011.78;5011730;28;20483;-86
2021/06/19 03:02:44;;;;;;;36.28;16.98;;;;;;;16.06;80.60;91006.19;4994851;28;20037;-86
2021/06/19 03:05:20;;;;;;;35.17;16.38;;;;;;;15.97;81.52;91009.09;4994578;28;20030;-86
2021/06/19 03:07:53;;;;;;;32.08;15.73;;;;;;;16.05;80.58;91009.94;4978355;28;20032;-86
2021/06/19 03:10:35;;;;;;;32.10;15.88;;;;;;;16.10;80.49;91012.22;4994540;28;20157;-87
2021/06/19 03:13:11;;;;;;;32.90;16.33;;;;;;;16.06;80.26;91008.81;5010727;28;20025;-86
2021/06/19 03:15:44;;;;;;;32.78;16.40;;;;;;;15.96;80.49;91012.06;4994720;28;20022;-87
2021/06/19 03:18:20;;;;;;;35.63;15.90;;;;;;;15.99;80.32;91021.88;4993775;28;20065;-86
2021/06/19 03:20:57;;;;;;;30.75;15.32;;;;;;;16.00;80.10;91020.75;4993836;28;20030;-86
2021/06/19 03:23:40;;;;;;;33.80;16.85;;;;;;;15.95;80.17;91032.34;4993545;28;20122;-86
2021/06/19 03:26:18;;;;;;;39.05;16.13;;;;;;;16.08;79.98;91034.72;4994143;28;20025;-87
2021/06/19 03:28:47;;;;;;;32.65;16.20;;;;;;;15.96;80.64;91035.72;5010453;28;20079;-86
2021/06/19 03:31:26;;;;;;;33.85;16.00;;;;;;;15.95;80.86;91039.47;5011260;28;20028;-86
2021/06/19 03:34:04;;;;;;;33.15;16.08;;;;;;;15.95;80.77;91045.47;4994232;28;20049;-86
2021/06/19 03:36:45;;;;;;;29.25;15.55;;;;;;;15.98;81.06;91030.88;4994351;28;20029;-86
2021/06/19 03:39:25;;;;;;;39.05;16.52;;;;;;;16.06;81.10;91040.34;4977675;28;20523;-86
2021/06/19 03:42:08;;;;;;;29.58;16.30;;;;;;;16.06;80.75;91026.47;4977995;28;20042;-86
2021/06/19 03:44:48;;;;;;;31.67;16.15;;;;;;;16.10;80.77;91020.13;4994757;28;20042;-86
2021/06/19 03:47:31;;;;;;;28.27;15.48;;;;;;;16.14;80.94;91025.41;5014264;28;20407;-87
2021/06/19 03:50:08;;;;;;;31.73;15.23;;;;;;;16.25;80.74;91034.16;4997717;28;20105;-86
2021/06/19 03:52:49;;;;;;;31.45;15.13;;;;;;;16.33;79.82;91029.78;4981583;28;20026;-86
2021/06/19 03:55:29;;;;;;;27.63;15.38;;;;;;;16.29;79.70;91029.72;5015041;28;20022;-86
2021/06/19 03:58:05;;;;;;;35.25;15.48;;;;;;;16.37;79.49;91036.56;4981612;28;20055;-86
2021/06/19 04:00:44;;;;;;;29.25;15.65;;;;;;;16.28;79.60;91032.69;5014030;28;20022;-86
2021/06/19 04:03:24;;;;;;;30.08;16.40;;;;;;;16.22;79.90;91025.16;4997738;28;20032;-86
2021/06/19 04:06:02;;;;;;;30.02;16.38;;;;;;;16.19;80.41;91015.34;4996818;28;20083;-86
2021/06/19 04:08:36;;;;;;;28.85;16.13;;;;;;;16.36;79.88;91037.69;4997292;28;20033;-86
2021/06/19 04:11:07;;;;;;;29.17;16.00;;;;;;;16.45;79.58;91038.16;4997977;28;20112;-86
2021/06/19 04:13:44;;;;;;;31.48;16.08;;;;;;;16.47;79.79;91045.69;4997298;28;20030;-86
2021/06/19 04:16:19;;;;;;;33.58;17.15;;;;;;;16.51;79.96;91045.72;5013586;28;20088;-86
2021/06/19 04:19:04;;;;;;;35.55;16.50;;;;;;;16.54;80.80;91048.41;4981343;28;20030;-86
2021/06/19 04:21:44;;;;;;;29.88;16.17;;;;;;;16.62;80.16;91047.34;4996847;28;20088;-86
2021/06/19 04:24:21;;;;;;;33.67;17.20;;;;;;;16.66;80.50;91053.38;4997454;28;20083;-86
2021/06/19 04:26:58;;;;;;;32.42;17.08;;;;;;;16.71;80.02;91047.03;4980894;28;20026;-86
2021/06/19 04:29:31;;;;;;;29.83;15.50;;;;;;;16.65;79.86;91048.50;4996321;28;20030;-86
2021/06/19 04:32:12;;;;;;;32.67;16.98;;;;;;;16.75;78.82;91049.72;5013567;28;20022;-86
2021/06/19 04:34:49;;;;;;;31.35;16.73;;;;;;;16.71;79.32;91050.44;5013530;28;20026;-85
2021/06/19 04:37:28;;;;;;;39.60;18.02;;;;;;;16.69;79.51;91052.66;4997415;28;20238;-86
2021/06/19 04:40:18;;;;;;;35.50;19.02;;;;;;;16.72;79.58;91045.94;5013225;28;20064;-86
2021/06/19 04:43:09;;;;;;;35.70;17.58;;;;;;;16.78;78.80;91046.38;5014464;28;20022;-86
2021/06/19 04:45:45;;;;;;;45.35;18.63;;;;;;;16.85;78.99;91046.44;4981377;28;20073;-86
2021/06/19 04:48:20;;;;;;;34.35;17.08;;;;;;;16.94;79.14;91046.91;5014582;28;20345;-86
2021/06/19 04:50:52;;;;;;;39.00;16.73;;;;;;;17.17;77.77;91039.59;4980380;28;20061;-86
2021/06/19 04:53:28;;;;;;;37.75;17.73;;;;;;;17.23;78.00;91039.22;4996699;28;20033;-86
2021/06/19 04:56:03;;;;;;;41.42;18.13;;;;;;;17.19;79.20;91037.31;4995637;28;20033;-86
2021/06/19 04:58:40;;;;;;;39.28;17.98;;;;;;;17.28;78.21;91034.41;4980352;28;20029;-86
2021/06/19 05:01:17;;;;;;;33.05;17.48;;;;;;;17.42;77.71;91049.50;4996240;28;20038;-86
2021/06/19 05:03:53;;;;;;;31.48;17.80;;;;;;;17.51;78.77;91039.44;4996715;28;20499;-86
2021/06/19 05:06:30;;;;;;;37.33;17.77;;;;;;;17.57;77.88;91043.22;4996674;28;20589;-86
2021/06/19 05:09:12;;;;;;;34.47;17.40;;;;;;;17.71;77.50;91034.66;4996786;28;20034;-86
2021/06/19 05:11:53;;;;;;;34.88;17.67;;;;;;;17.95;76.20;91038.59;5013589;28;20030;-86
2021/06/19 05:14:35;;;;;;;33.45;15.90;;;;;;;18.02;75.92;91038.63;4976254;28;20045;-86
2021/06/19 05:17:17;;;;;;;24.65;14.40;;;;;;;18.23;75.11;91042.44;4976982;28;20053;-86
2021/06/19 05:19:55;;;;;;;33.83;15.73;;;;;;;18.31;75.17;91050.03;4976366;28;20019;-86
2021/06/19 05:22:32;;;;;;;34.67;15.43;;;;;;;18.40;74.82;91039.09;4988083;28;20018;-87
2021/06/19 05:25:12;;;;;;;32.10;16.13;;;;;;;18.47;75.34;91035.75;4995724;28;20037;-87
2021/06/19 05:27:52;;;;;;;33.78;15.52;;;;;;;18.52;74.70;91038.78;5013213;28;20044;-85
2021/06/19 05:30:25;;;;;;;30.55;16.13;;;;;;;18.65;76.19;91047.09;4997184;28;20026;-86
2021/06/19 05:33:04;;;;;;;31.02;15.85;;;;;;;18.73;75.74;91053.16;4964065;28;20180;-86
2021/06/19 05:35:38;;;;;;;33.75;16.23;;;;;;;18.77;76.28;91049.41;5013475;28;20539;-86
2021/06/19 05:38:14;;;;;;;34.47;15.35;;;;;;;18.83;74.94;91050.56;4981060;28;20034;-86
2021/06/19 05:40:47;;;;;;;36.70;17.00;;;;;;;18.93;74.13;91051.69;4964915;28;20088;-86
2021/06/19 05:43:30;;;;;;;28.70;14.82;;;;;;;19.08;73.49;91053.22;5003800;28;20021;-89
2021/06/19 05:46:12;;;;;;;32.03;15.13;;;;;;;19.11;73.38;91051.72;5017924;28;20053;-88
2021/06/19 05:48:56;;;;;;;29.92;14.32;;;;;;;19.22;72.59;91059.63;4997304;28;20076;-86
2021/06/19 05:51:36;;;;;;;30.25;14.50;;;;;;;19.30;72.99;91059.28;5011926;28;20034;-87
2021/06/19 05:54:12;;;;;;;35.85;15.27;;;;;;;19.45;73.79;91062.66;4995094;28;20030;-87
2021/06/19 05:56:48;;;;;;;29.25;15.02;;;;;;;19.56;73.40;91055.47;5013147;28;20080;-86
2021/06/19 05:59:24;;;;;;;27.25;15.52;;;;;;;19.65;71.63;91051.72;5011463;28;20502;-87
2021/06/19 06:02:05;;;;;;;35.10;15.38;;;;;;;19.77;73.17;91053.97;4994650;28;20109;-86
2021/06/19 06:04:44;;;;;;;34.95;14.95;;;;;;;19.76;72.36;91053.22;4978720;28;20149;-86
2021/06/19 06:07:20;;;;;;;34.03;14.95;;;;;;;19.84;71.93;91043.38;4994812;28;20401;-86
2021/06/19 06:10:01;;;;;;;28.02;13.98;;;;;;;19.99;72.60;91039.56;4995114;28;20030;-87
2021/06/19 06:12:38;;;;;;;29.73;14.82;;;;;;;20.09;71.51;91037.25;4996097;28;20021;-87
2021/06/19 06:15:22;;;;;;;37.03;15.07;;;;;;;20.16;70.80;91043.28;4994420;28;20107;-86
2021/06/19 06:17:57;;;;;;;36.13;14.00;;;;;;;20.27;71.77;91038.69;5011638;28;20101;-86
2021/06/19 06:20:26;;;;;;;36.10;13.50;;;;;;;20.35;71.79;91033.38;5012288;28;20480;-87
2021/06/19 06:23:01;;;;;;;33.47;14.07;;;;;;;20.47;70.59;91025.75;5011283;28;20075;-86
2021/06/19 06:25:37;;;;;;;32.92;14.65;;;;;;;20.49;69.81;91018.22;4994605;28;20502;-87
2021/06/19 06:28:12;;;;;;;32.28;14.15;;;;;;;20.57;69.38;91018.19;4995059;28;20030;-86
2021/06/19 06:30:54;;;;;;;31.48;14.40;;;;;;;20.69;69.77;91021.13;5012103;28;20103;-86
2021/06/19 06:33:35;;;;;;;31.48;13.65;;;;;;;20.84;66.67;91016.50;4994505;28;20033;-86
2021/06/19 06:36:17;;;;;;;33.03;14.82;;;;;;;20.98;68.69;91015.66;5012189;28;20080;-87
2021/06/19 06:38:49;;;;;;;32.63;14.05;;;;;;;20.99;69.30;91009.97;5012169;28;20450;-87
2021/06/19 06:41:25;;;;;;;30.88;14.65;;;;;;;21.12;66.75;91007.59;5009976;28;20487;-87
2021/06/19 06:44:02;;;;;;;36.00;13.80;;;;;;;21.23;65.59;91000.31;4994508;28;20113;-87
2021/06/19 06:46:42;;;;;;;27.50;12.65;;;;;;;21.27;64.72;90999.53;4994707;28;20108;-86
2021/06/19 06:49:19;;;;;;;26.77;12.65;;;;;;;21.32;66.68;90989.28;5006700;28;20018;-86
2021/06/19 06:51:54;;;;;;;32.70;13.75;;;;;;;21.43;64.18;90995.25;4992867;28;20023;-87
2021/06/19 06:54:27;;;;;;;30.17;13.07;;;;;;;21.45;64.83;90995.63;4975782;28;20058;-87
2021/06/19 06:57:05;;;;;;;38.17;13.38;;;;;;;21.57;65.54;90997.03;4991197;28;20026;-87
2021/06/19 06:59:43;;;;;;;34.25;13.70;;;;;;;21.76;64.31;90998.34;4975573;28;20014;-87
2021/06/19 07:02:20;;;;;;;31.13;12.32;;;;;;;21.78;63.12;90990.00;4975615;28;20053;-86
2021/06/19 07:04:54;;;;;;;28.90;13.45;;;;;;;21.85;63.74;90988.03;4975267;28;20492;-87
2021/06/19 07:07:32;;;;;;;33.60;13.55;;;;;;;22.04;61.54;90994.63;4974792;28;20113;-87
2021/06/19 07:10:07;;;;;;;31.30;13.25;;;;;;;22.04;60.95;90997.28;4975250;28;20030;-87
2021/06/19 07:12:45;;;;;;;35.78;12.50;;;;;;;22.05;61.86;90992.75;4974506;28;20023;-87
2021/06/19 07:15:26;;;;;;;26.92;11.35;;;;;;;22.14;58.34;90998.31;4975641;28;20052;-87
2021/06/19 07:18:04;;;;;;;28.90;12.48;;;;;;;22.24;59.02;91002.78;4959959;28;20038;-87
2021/06/19 07:20:39;;;;;;;36.03;11.75;;;;;;;22.40;58.30;91008.28;4977172;28;20018;-87
2021/06/19 07:23:21;;;;;;;28.77;10.57;;;;;;;22.35;57.33;91003.41;4994844;28;20080;-87
2021/06/19 07:25:57;;;;;;;33.10;13.13;;;;;;;22.34;58.35;90999.25;4980004;28;20053;-86
2021/06/19 07:28:36;;;;;;;35.20;11.68;;;;;;;22.50;58.68;91003.22;4979326;28;20456;-89
2021/06/19 07:31:12;;;;;;;30.60;12.32;;;;;;;22.62;59.96;91008.75;4979378;28;20018;-87
2021/06/19 07:33:46;;;;;;;38.35;12.00;;;;;;;22.68;58.14;90995.78;4963484;28;20022;-86
2021/06/19 07:36:28;;;;;;;41.83;12.50;;;;;;;22.77;58.13;91003.25;4994607;28;20022;-87
2021/06/19 07:39:08;;;;;;;34.38;12.48;;;;;;;22.90;57.90;90999.66;4978076;28;20088;-87
2021/06/19 07:41:43;;;;;;;35.30;12.27;;;;;;;23.03;58.96;90999.09;4979194;28;20492;-87
2021/06/19 07:44:18;;;;;;;44.55;11.02;;;;;;;23.19;56.90;90993.94;4978679;28;20034;-85
2021/06/19 07:46:52;;;;;;;36.35;11.45;;;;;;;23.31;56.63;90988.03;4976989;28;20034;-87
2021/06/19 07:49:34;;;;;;;32.92;11.90;;;;;;;23.31;53.95;90977.41;4986030;28;20538;-87
2021/06/19 07:52:12;;;;;;;39.28;12.23;;;;;;;23.42;54.76;90982.53;4997327;28;20065;-87
2021/06/19 07:54:48;;;;;;;40.60;10.82;;;;;;;23.62;53.09;90979.94;5015133;28;20491;-86
2021/06/19 07:57:38;;;;;;;39.35;11.63;;;;;;;23.80;54.08;90967.09;5015096;28;20083;-87
2021/06/19 08:00:20;;;;;;;42.33;11.50;;;;;;;23.77;52.36;90967.16;4997130;28;20046;-87
2021/06/19 08:03:02;;;;;;;27.50;10.80;;;;;;;23.85;54.21;90963.97;4981261;28;20033;-87
2021/06/19 08:05:38;;;;;;;39.22;11.80;;;;;;;23.81;51.40;90957.19;5093829;23;20045;-85
2021/06/19 08:08:13;;;;;;;31.63;11.32;;;;;;;23.85;51.02;90958.63;5023685;28;20053;-85
2021/06/19 08:10:48;;;;;;;40.05;12.00;;;;;;;23.93;52.25;90955.84;5028253;28;20026;-83
2021/06/19 08:13:32;;;;;;;38.45;11.00;;;;;;;24.10;51.17;90960.06;5029121;28;20250;-84
2021/06/19 08:16:09;;;;;;;36.08;11.18;;;;;;;24.04;50.65;90949.16;4988490;28;20428;-86
2021/06/19 08:18:51;;;;;;;34.83;10.60;;;;;;;24.13;51.96;90953.91;5001307;28;20031;-85
2021/06/19 08:21:30;;;;;;;41.47;11.30;;;;;;;24.27;53.04;90948.28;4985021;28;20018;-84
2021/06/19 08:24:08;;;;;;;38.17;10.82;;;;;;;24.40;51.37;90939.72;4968709;28;20030;-85
2021/06/19 08:26:45;;;;;;;36.47;11.93;;;;;;;24.47;50.23;90934.25;4984420;28;20030;-85
2021/06/19 08:29:30;;;;;;;35.53;11.00;;;;;;;24.46;51.13;90930.84;4987221;28;20030;-83
2021/06/19 08:32:07;;;;;;;39.33;10.95;;;;;;;24.64;51.08;90922.44;4998134;28;20026;-84
2021/06/19 08:34:53;;;;;;;42.85;11.48;;;;;;;24.78;51.41;90922.13;4965842;28;20041;-84
2021/06/19 08:37:28;;;;;;;54.90;13.32;;;;;;;24.94;50.81;90920.63;4996134;28;20034;-84
2021/06/19 08:40:11;;;;;;;29.92;11.45;;;;;;;25.00;51.09;90922.38;4996858;28;20030;-84
2021/06/19 08:42:48;;;;;;;33.80;11.03;;;;;;;25.03;49.39;90916.22;4980643;28;20049;-84
2021/06/19 08:45:42;;;;;;;41.30;11.23;;;;;;;25.31;50.20;90913.31;4973476;28;20041;-85
2021/06/19 08:48:19;;;;;;;;;;;;;;;25.40;51.89;90905.44;5002864;28;20026;-84
2021/06/19 08:50:58;;;;;;;37.30;11.20;;;;;;;25.34;49.33;90907.16;5015918;28;19914;-84
2021/06/19 08:53:37;;;;;;;27.48;10.77;;;;;;;25.28;47.05;90894.31;4985509;28;20380;-85
2021/06/19 08:56:18;;;;;;;36.38;11.38;;;;;;;25.41;47.71;90891.72;5034135;28;20036;-85
2021/06/19 08:59:04;;;;;;;30.30;10.55;;;;;;;25.42;47.25;90893.19;5001341;28;20022;-84
2021/06/19 09:01:44;;;;;;;29.98;10.93;;;;;;;25.32;47.01;90888.13;5001157;28;20025;-84
2021/06/19 09:04:22;;;;;;;31.83;10.43;;;;;;;25.21;46.70;90875.06;5002539;28;20034;-85
2021/06/19 09:06:58;;;;;;;37.42;11.25;;;;;;;25.19;45.97;90886.13;4986653;28;20030;-85
2021/06/19 09:09:38;;;;;;;39.00;11.93;;;;;;;25.17;46.95;90866.41;4985513;28;20029;-85
2021/06/19 09:12:13;;;;;;;37.42;11.57;;;;;;;25.33;47.82;90871.69;4986632;28;20097;-86
2021/06/19 09:14:48;;;;;;;42.42;12.13;;;;;;;25.47;50.83;90862.59;4985999;28;20522;-85
2021/06/19 09:17:25;;;;;;;32.47;11.35;;;;;;;25.64;49.93;90861.38;5021023;28;20399;-85
2021/06/19 09:20:03;;;;;;;45.53;12.70;;;;;;;25.26;49.63;90856.63;4988774;28;20017;-85
2021/06/19 09:22:40;;;;;;;41.90;13.63;;;;;;;24.95;51.48;90855.50;5005858;28;20017;-85
2021/06/19 09:25:17;;;;;;;40.35;12.70;;;;;;;24.75;52.25;90855.59;4991868;28;20022;-84
2021/06/19 09:27:56;;;;;;;34.22;12.95;;;;;;;24.82;52.44;90854.69;4984189;28;20511;-84
2021/06/19 09:30:29;;;;;;;36.88;13.13;;;;;;;24.73;53.55;90850.66;4997275;28;20022;-84
2021/06/19 09:33:10;;;;;;;40.80;14.40;;;;;;;24.46;54.85;90853.59;4981562;28;20042;-84
2021/06/19 09:35:48;;;;;;;37.13;13.40;;;;;;;24.50;54.24;90864.16;4982413;28;20053;-85
2021/06/19 09:38:27;;;;;;;34.08;13.32;;;;;;;24.47;53.61;90859.66;4997769;28;20046;-84
2021/06/19 09:41:04;;;;;;;39.20;13.63;;;;;;;24.31;52.70;90863.00;4983803;28;20404;-82
2021/06/19 09:43:50;;;;;;;35.20;12.73;;;;;;;24.21;51.97;90864.03;4981856;28;20045;-84
2021/06/19 09:46:27;;;;;;;36.70;12.38;;;;;;;24.32;52.83;90875.19;4983675;28;20030;-84
2021/06/19 09:49:18;;;;;;;38.05;11.27;;;;;;;24.49;53.62;90874.06;4978506;28;20468;-84
2021/06/19 09:51:59;;;;;;;33.05;11.68;;;;;;;24.27;52.20;90863.09;4977996;28;20060;-84
2021/06/19 09:54:42;;;;;;;33.15;11.95;;;;;;;24.38;52.91;90872.75;4962040;28;20054;-84
2021/06/19 09:57:16;;;;;;;27.30;11.48;;;;;;;24.70;53.24;90874.72;4979191;28;20026;-81
2021/06/19 09:59:53;;;;;;;35.13;10.77;;;;;;;24.86;47.72;90868.66;4961458;28;20389;-84
2021/06/19 10:02:38;;;;;;;35.20;11.52;;;;;;;25.11;53.52;90860.84;4961803;28;20026;-84
2021/06/19 10:05:16;;;;;;;36.95;11.38;;;;;;;25.35;51.81;90865.97;4962695;28;20063;-84
2021/06/19 10:07:55;;;;;;;34.95;12.32;;;;;;;25.36;51.59;90857.53;4978702;28;20030;-83
2021/06/19 10:10:28;;;;;;;36.58;12.77;;;;;;;25.21;51.50;90853.75;4945706;28;20054;-83
2021/06/19 10:13:08;;;;;;;26.95;12.23;;;;;;;25.30;50.92;90853.91;4961850;28;20030;-84
2021/06/19 10:15:45;;;;;;;31.67;12.38;;;;;;;25.41;51.77;90858.97;4980608;28;20105;-86
2021/06/19 10:18:26;;;;;;;31.83;11.23;;;;;;;25.48;50.10;90859.50;4991108;28;20027;-84
2021/06/19 10:21:01;;;;;;;29.25;12.38;;;;;;;25.57;50.54;90866.88;4964724;28;20473;-85
2021/06/19 10:23:41;;;;;;;36.80;12.90;;;;;;;25.57;48.59;90860.81;4962885;28;20507;-85
2021/06/19 10:26:15;;;;;;;30.42;11.63;;;;;;;25.72;49.18;90857.34;4979952;28;20037;-84
2021/06/19 10:28:56;;;;;;;30.80;12.48;;;;;;;25.85;48.77;90856.66;4963482;28;20023;-84
2021/06/19 10:31:38;;;;;;;30.05;11.57;;;;;;;25.98;48.43;90860.09;4963631;28;20058;-85
2021/06/19 10:34:31;;;;;;;30.05;11.40;;;;;;;26.02;46.64;90852.00;4947216;28;20419;-84
2021/06/19 10:37:07;;;;;;;35.78;11.77;;;;;;;26.29;48.29;90859.59;4978628;28;20110;-84
2021/06/19 10:39:45;;;;;;;43.10;12.30;;;;;;;26.33;46.25;90865.59;4978281;28;20022;-84
2021/06/19 10:42:46;;;;;;;41.38;13.52;;;;;;;26.29;49.34;90868.38;4995846;28;20026;-84
2021/06/19 10:45:30;;;;;;;42.78;11.88;;;;;;;26.42;48.28;90853.06;4982497;28;20038;-84
2021/06/19 10:48:07;;;;;;;;;;;;;;;26.45;46.20;90857.56;4964545;28;20109;-85
2021/06/19 10:50:45;;;;;;;30.55;10.10;;;;;;;26.47;47.36;90851.84;5013219;28;19920;-85
2021/06/19 10:53:20;;;;;;;29.15;11.45;;;;;;;26.52;43.91;90850.53;4984002;28;20034;-84
2021/06/19 10:56:02;;;;;;;38.10;11.20;;;;;;;26.55;44.60;90853.09;4967452;28;20026;-84
2021/06/19 10:58:46;;;;;;;40.15;11.88;;;;;;;26.51;44.76;90849.06;4982698;28;20088;-84
2021/06/19 11:01:33;;;;;;;45.53;11.52;;;;;;;26.60;44.67;90849.13;4998139;28;20076;-83
2021/06/19 11:04:31;;;;;;;38.63;10.45;;;;;;;26.82;46.24;90847.31;4969349;28;20475;-84
2021/06/19 11:07:08;;;;;;;40.88;11.25;;;;;;;26.52;42.31;90840.59;5000486;28;20018;-85
2021/06/19 11:09:52;;;;;;;43.22;11.20;;;;;;;26.67;43.11;90838.22;5000458;28;20030;-84
2021/06/19 11:12:23;;;;;;;39.72;11.93;;;;;;;26.72;45.39;90828.94;4999704;28;20030;-85
2021/06/19 11:15:01;;;;;;;43.80;10.98;;;;;;;26.83;44.19;90838.09;4999939;28;20030;-86
2021/06/19 11:17:44;;;;;;;36.92;12.75;;;;;;;26.90;44.03;90834.47;4985775;28;20025;-85
2021/06/19 11:20:32;;;;;;;47.67;11.85;;;;;;;26.68;42.97;90823.72;5000221;28;20399;-84
2021/06/19 11:23:08;;;;;;;44.92;12.63;;;;;;;26.85;47.77;90824.28;4985388;28;20030;-84
2021/06/19 11:26:06;;;;;;;44.13;14.07;;;;;;;26.94;48.23;90816.38;4985236;28;20403;-85
2021/06/19 11:28:47;;;;;;;44.17;13.25;;;;;;;26.66;47.46;90816.09;5003900;28;20034;-85
2021/06/19 11:31:29;;;;;;;39.00;13.27;;;;;;;26.76;50.11;90811.59;5002782;28;20029;-85
2021/06/19 11:34:01;;;;;;;45.25;15.23;;;;;;;26.58;49.19;90812.16;4985918;28;20512;-85
2021/06/19 11:36:42;;;;;;;33.80;14.80;;;;;;;26.65;49.80;90816.56;4986552;28;20050;-85
2021/06/19 11:39:19;;;;;;;41.53;14.50;;;;;;;26.47;49.07;90814.44;5002927;28;20021;-83
2021/06/19 11:41:57;;;;;;;38.60;14.52;;;;;;;26.23;50.17;90808.63;5002746;28;20104;-85
2021/06/19 11:44:33;;;;;;;39.92;14.55;;;;;;;26.13;50.27;90799.03;5002579;28;20385;-85
2021/06/19 11:47:08;;;;;;;29.92;14.27;;;;;;;26.08;50.57;90792.31;4971477;28;20056;-86
2021/06/19 11:49:50;;;;;;;42.58;14.40;;;;;;;26.13;51.57;90799.75;4986041;28;20021;-86
2021/06/19 11:52:30;;;;;;;38.67;14.82;;;;;;;26.21;51.11;90803.72;5003633;28;20411;-86
2021/06/19 11:55:04;;;;;;;32.25;13.77;;;;;;;26.01;49.23;90803.19;5019853;28;20491;-86
2021/06/19 11:57:45;;;;;;;33.30;15.30;;;;;;;26.41;50.70;90802.75;5021205;28;20029;-86
2021/06/19 12:00:20;;;;;;;33.70;14.55;;;;;;;26.33;51.04;90796.16;5007799;28;20025;-84
2021/06/19 12:03:03;;;;;;;33.13;14.77;;;;;;;25.73;49.19;90784.13;4997663;28;20022;-85
2021/06/19 12:05:39;;;;;;;38.63;14.10;;;;;;;26.05;50.20;90787.81;5031187;28;20038;-84
2021/06/19 12:08:16;;;;;;;41.17;14.55;;;;;;;26.01;49.47;90792.50;4995243;28;20096;-84
2021/06/19 12:10:51;;;;;;;33.13;15.15;;;;;;;25.93;49.80;90802.63;5014668;28;20030;-84